Time;durP1;ratioP1;P1;durP2;ratioP2;P2;SDS_P1;SDS_P2;PMS_P1;PMS_P2;Temp;Humidity;BMP_temperature;BMP_pressure;BME280_temperature;BME280_humidity;BME280_pressure;Samples;Min_cycle;Max_cycle;Signal;HPM_P1;HPM_P2
2022/03/03 00:01:35;;;;;;;3.30;3.00;;;;;;;0.94;86.51;91941.97;4939657;28;20485;-75
2022/03/03 00:04:03;;;;;;;1.87;1.87;;;;;;;0.70;87.51;91935.75;4940210;28;20492;-75
2022/03/03 00:06:30;;;;;;;2.50;1.83;;;;;;;0.62;88.14;91935.03;4939381;28;20592;-75
2022/03/03 00:08:57;;;;;;;2.73;2.57;;;;;;;0.51;88.29;91946.03;4939533;28;20315;-75
2022/03/03 00:11:26;;;;;;;1.80;1.80;;;;;;;0.32;88.22;91935.56;4938695;28;20265;-76
2022/03/03 00:13:53;;;;;;;2.17;2.07;;;;;;;0.25;88.67;91929.84;4939495;28;20245;-76
2022/03/03 00:16:20;;;;;;;2.40;2.40;;;;;;;0.40;87.98;91932.09;4939103;28;20208;-76
2022/03/03 00:18:47;;;;;;;2.97;2.20;;;;;;;0.25;88.25;91934.81;4939624;28;20609;-76
2022/03/03 00:21:15;;;;;;;1.80;1.80;;;;;;;0.18;88.98;91938.22;4939218;28;20532;-76
2022/03/03 00:23:42;;;;;;;2.23;2.13;;;;;;;0.07;88.86;91914.41;4939631;28;20547;-76
2022/03/03 00:26:09;;;;;;;2.37;2.37;;;;;;;0.14;89.89;91930.88;4939728;28;20613;-76
2022/03/03 00:28:38;;;;;;;2.47;2.37;;;;;;;0.36;88.83;91934.66;4938468;28;20194;-76
2022/03/03 00:31:05;;;;;;;2.13;2.03;;;;;;;0.50;88.39;91936.94;4939432;28;20597;-76
2022/03/03 00:33:32;;;;;;;3.93;2.70;;;;;;;0.55;87.99;91938.50;4938771;28;20573;-76
2022/03/03 00:36:00;;;;;;;2.93;2.73;;;;;;;0.54;87.21;91933.53;4938933;28;20633;-76
2022/03/03 00:38:27;;;;;;;3.27;3.07;;;;;;;0.43;88.01;91928.75;4939335;28;20648;-76
2022/03/03 00:40:54;;;;;;;1.80;1.80;;;;;;;0.33;87.86;91933.06;4938389;28;20525;-76
2022/03/03 00:43:21;;;;;;;2.20;2.20;;;;;;;0.21;88.90;91932.41;4938831;28;20621;-76
2022/03/03 00:45:50;;;;;;;1.17;1.13;;;;;;;0.13;89.09;91921.75;4938755;28;20665;-76
2022/03/03 00:48:17;;;;;;;2.17;2.07;;;;;;;0.05;89.41;91914.47;4938769;28;20671;-76
2022/03/03 00:50:45;;;;;;;1.40;1.40;;;;;;;0.19;88.77;91929.13;4939237;28;20518;-76
2022/03/03 00:53:12;;;;;;;1.87;1.87;;;;;;;0.29;88.29;91921.50;4938889;28;20232;-76
2022/03/03 00:55:39;;;;;;;1.70;1.70;;;;;;;0.40;87.70;91913.88;4938892;28;20572;-76
2022/03/03 00:58:06;;;;;;;1.20;1.20;;;;;;;0.57;88.66;91918.56;4937961;28;20599;-76
2022/03/03 01:00:34;;;;;;;2.73;2.57;;;;;;;0.62;88.19;91929.28;4938397;28;20194;-76
2022/03/03 01:03:02;;;;;;;1.43;1.00;;;;;;;0.64;88.36;91925.06;4938116;28;20645;-76
2022/03/03 01:05:29;;;;;;;1.47;1.47;;;;;;;0.39;90.12;91915.53;4938493;28;20212;-76
2022/03/03 01:07:56;;;;;;;1.60;1.60;;;;;;;0.35;90.16;91916.44;4938277;28;20282;-76
2022/03/03 01:10:24;;;;;;;2.27;2.17;;;;;;;0.44;89.78;91909.69;4939662;28;20579;-76
2022/03/03 01:12:51;;;;;;;1.50;1.50;;;;;;;0.46;88.65;91890.59;4938190;28;20545;-76
2022/03/03 01:15:18;;;;;;;1.20;1.20;;;;;;;0.51;89.41;91904.56;4938968;28;20489;-76
2022/03/03 01:17:46;;;;;;;1.33;1.33;;;;;;;0.49;88.99;91905.47;4938335;28;20765;-76
2022/03/03 01:20:14;;;;;;;1.30;1.30;;;;;;;0.60;88.13;91911.06;4937857;28;20591;-76
2022/03/03 01:22:41;;;;;;;2.00;1.77;;;;;;;0.40;88.36;91892.34;4938577;28;20221;-76
2022/03/03 01:25:09;;;;;;;1.27;1.27;;;;;;;0.52;87.64;91908.72;4937801;28;20669;-76
2022/03/03 01:27:37;;;;;;;0.80;0.80;;;;;;;0.55;87.87;91910.34;4937758;28;20470;-76
2022/03/03 01:30:06;;;;;;;2.00;2.00;;;;;;;0.38;88.93;91899.03;4937973;28;20658;-76
2022/03/03 01:32:33;;;;;;;15.47;1.60;;;;;;;0.39;88.98;91900.63;4937730;28;20218;-76
2022/03/03 01:35:01;;;;;;;2.30;2.20;;;;;;;0.49;87.95;91908.78;4937677;28;20622;-76
2022/03/03 01:37:29;;;;;;;1.77;1.67;;;;;;;0.54;88.19;91912.00;4937816;28;20478;-76
2022/03/03 01:39:56;;;;;;;1.10;1.10;;;;;;;0.30;88.53;91907.44;4937581;28;20474;-76
2022/03/03 01:42:24;;;;;;;1.20;1.20;;;;;;;0.33;88.69;91908.22;4937875;28;20603;-77
2022/03/03 01:44:51;;;;;;;2.43;2.17;;;;;;;0.45;87.57;91903.88;4937527;28;20188;-76
2022/03/03 01:47:20;;;;;;;1.30;1.30;;;;;;;0.46;86.44;91906.31;4938343;28;20513;-76
2022/03/03 01:49:49;;;;;;;3.00;2.37;;;;;;;0.47;86.71;91892.25;4937492;28;20203;-76
2022/03/03 01:52:17;;;;;;;7.30;2.70;;;;;;;0.58;84.80;91915.25;4938372;28;20556;-76
2022/03/03 01:54:46;;;;;;;3.10;3.00;;;;;;;0.52;83.91;91916.16;4937892;28;20243;-76
2022/03/03 01:57:17;;;;;;;2.20;2.10;;;;;;;0.31;83.91;91906.59;4937695;28;20611;-76
2022/03/03 01:59:45;;;;;;;3.03;2.93;;;;;;;0.28;84.29;91909.13;4937585;28;20662;-76
2022/03/03 02:02:12;;;;;;;2.27;2.27;;;;;;;0.09;85.12;91893.69;4948386;28;20294;-76
2022/03/03 02:04:40;;;;;;;2.00;1.97;;;;;;;0.00;87.33;91901.28;4936914;28;20684;-76
2022/03/03 02:07:07;;;;;;;3.03;2.93;;;;;;;-0.02;86.22;91898.81;4955465;28;20210;-76
2022/03/03 02:09:35;;;;;;;2.50;2.40;;;;;;;-0.02;86.19;91906.28;4957036;28;20612;-77
2022/03/03 02:12:05;;;;;;;1.77;1.67;;;;;;;-0.12;87.30;91899.81;4957070;28;20624;-76
2022/03/03 02:14:41;;;;;;;1.77;1.77;;;;;;;-0.21;88.04;91891.66;4956780;28;20679;-76
2022/03/03 02:17:08;;;;;;;2.17;2.17;;;;;;;-0.33;88.58;91901.75;4956708;28;20569;-76
2022/03/03 02:19:36;;;;;;;2.27;2.27;;;;;;;-0.24;87.80;91904.94;4956571;28;20545;-76
2022/03/03 02:22:05;;;;;;;1.67;1.67;;;;;;;-0.18;86.66;91911.47;4956609;28;20655;-76
2022/03/03 02:24:32;;;;;;;1.23;1.23;;;;;;;-0.25;86.57;91900.81;4956394;28;20297;-76
2022/03/03 02:27:01;;;;;;;2.13;2.03;;;;;;;-0.37;88.00;91905.13;4956913;28;20620;-76
2022/03/03 02:29:29;;;;;;;2.17;2.07;;;;;;;-0.65;89.45;91897.22;4956224;28;20544;-77
2022/03/03 02:31:56;;;;;;;1.20;1.20;;;;;;;-0.60;88.95;91898.81;4956818;28;20472;-76
2022/03/03 02:34:24;;;;;;;2.30;2.30;;;;;;;-0.50;88.03;91905.28;4957127;28;20589;-76
2022/03/03 02:36:51;;;;;;;1.80;1.80;;;;;;;-0.51;87.53;91906.13;4960160;28;20596;-77
2022/03/03 02:39:19;;;;;;;1.90;1.90;;;;;;;-0.65;88.54;91875.75;4959919;28;20554;-77
2022/03/03 02:41:47;;;;;;;2.77;2.67;;;;;;;-0.58;89.11;91898.81;4960133;28;20539;-76
2022/03/03 02:44:14;;;;;;;2.57;2.40;;;;;;;-0.53;88.60;91904.53;4959883;28;20482;-76
2022/03/03 02:46:41;;;;;;;1.90;1.73;;;;;;;-0.54;87.90;91905.34;4960359;28;20561;-77
2022/03/03 02:49:09;;;;;;;1.53;1.53;;;;;;;-0.71;89.79;91897.31;4960099;28;20703;-77
2022/03/03 02:51:36;;;;;;;2.83;2.30;;;;;;;-0.70;89.83;91904.75;4961290;28;20538;-77
2022/03/03 02:54:04;;;;;;;1.87;1.83;;;;;;;-0.67;88.61;91903.88;4960225;28;20333;-77
2022/03/03 02:57:53;;;;;;;2.10;2.07;;;;;;;-0.96;89.47;91887.69;4960514;28;20596;-77
2022/03/03 02:59:20;;;;;;;1.30;1.30;;;;;;;-1.21;89.84;91883.03;4960444;28;20301;-77
2022/03/03 03:01:47;;;;;;;1.53;1.53;;;;;;;-1.14;89.13;91882.97;4959142;28;20499;-77
2022/03/03 03:04:14;;;;;;;2.00;1.90;;;;;;;-1.11;90.05;91902.75;4959924;28;20560;-77
2022/03/03 03:06:41;;;;;;;1.70;1.70;;;;;;;-0.98;89.27;91893.50;4959925;28;20559;-76
2022/03/03 03:09:09;;;;;;;1.47;1.47;;;;;;;-0.91;88.39;91905.00;4960059;28;20588;-76
2022/03/03 03:11:37;;;;;;;1.80;1.80;;;;;;;-0.95;88.65;91904.19;4960058;28;20542;-77
2022/03/03 03:14:04;;;;;;;1.17;1.17;;;;;;;-1.10;89.39;91904.38;4959921;28;20703;-77
2022/03/03 03:16:32;;;;;;;1.07;1.07;;;;;;;-1.27;89.36;91893.84;4960669;28;20203;-77
2022/03/03 03:18:59;;;;;;;2.03;1.93;;;;;;;-1.63;90.20;91860.34;4959554;28;20589;-77
2022/03/03 03:21:26;;;;;;;1.77;1.67;;;;;;;-1.21;89.14;91911.13;4959704;28;20301;-77
2022/03/03 03:23:53;;;;;;;1.10;1.10;;;;;;;-1.16;88.86;91901.16;4958610;28;20528;-77
2022/03/03 03:26:21;;;;;;;1.43;1.43;;;;;;;-1.28;90.62;91895.50;4959874;28;20536;-77
2022/03/03 03:28:49;;;;;;;1.43;1.43;;;;;;;-1.10;89.15;91911.00;4959879;28;20200;-77
2022/03/03 03:31:18;;;;;;;1.33;1.33;;;;;;;-1.13;89.41;91904.44;4959464;28;20609;-77
2022/03/03 03:33:45;;;;;;;1.67;1.67;;;;;;;-1.34;90.62;91897.19;4959708;28;20266;-77
2022/03/03 03:36:12;;;;;;;1.43;1.43;;;;;;;-1.30;89.55;91906.25;4959669;28;20577;-77
2022/03/03 03:38:39;;;;;;;1.50;1.50;;;;;;;-1.14;89.06;91912.69;4958950;28;20600;-77
2022/03/03 03:41:06;;;;;;;4.50;4.30;;;;;;;-1.23;89.62;91905.34;4959661;28;20568;-77
2022/03/03 03:43:34;;;;;;;2.43;2.33;;;;;;;-1.38;89.92;91905.50;4959405;28;20640;-77
2022/03/03 03:46:02;;;;;;;2.53;2.50;;;;;;;-1.28;89.51;91924.38;4959374;28;20568;-77
2022/03/03 03:48:30;;;;;;;1.90;1.90;;;;;;;-1.37;89.36;91910.47;4958300;28;20557;-77
2022/03/03 03:50:57;;;;;;;3.27;3.17;;;;;;;-1.23;90.19;91912.78;4958720;28;20579;-78
2022/03/03 03:53:24;;;;;;;1.70;1.70;;;;;;;-1.38;90.05;91908.81;4958655;28;20589;-78
2022/03/03 03:55:52;;;;;;;1.07;1.07;;;;;;;-1.44;90.10;91896.47;4958971;28;20371;-75
2022/03/03 03:58:20;;;;;;;0.70;0.70;;;;;;;-1.29;88.93;91918.63;4958837;28;20651;-76
2022/03/03 04:00:47;;;;;;;1.90;1.90;;;;;;;-1.31;89.20;91926.91;4959099;28;20567;-76
2022/03/03 04:03:15;;;;;;;1.67;1.50;;;;;;;-1.50;89.11;91921.31;4958232;28;20611;-76
2022/03/03 04:05:43;;;;;;;2.17;2.07;;;;;;;-1.55;89.68;91914.75;4959183;28;20598;-76
2022/03/03 04:08:10;;;;;;;1.00;1.00;;;;;;;-1.41;88.89;91925.38;4958631;28;20556;-76
2022/03/03 04:10:38;;;;;;;2.70;2.60;;;;;;;-1.30;88.91;91929.38;4959133;28;20605;-76
2022/03/03 04:13:05;;;;;;;1.40;1.40;;;;;;;-1.21;87.61;91928.47;4958215;28;20643;-76
2022/03/03 04:15:32;;;;;;;2.17;2.17;;;;;;;-1.09;88.64;91920.06;4957807;28;20545;-76
2022/03/03 04:17:59;;;;;;;1.57;1.47;;;;;;;-0.92;87.47;91924.00;4959035;28;20596;-76
2022/03/03 04:20:28;;;;;;;2.07;2.07;;;;;;;-0.77;87.41;91917.22;4959531;28;20593;-76
2022/03/03 04:22:55;;;;;;;1.67;1.57;;;;;;;-0.79;86.71;91911.47;4959034;28;20454;-76
2022/03/03 04:25:22;;;;;;;5.27;1.80;;;;;;;-0.83;87.24;91920.59;4958078;28;20609;-76
2022/03/03 04:27:50;;;;;;;2.20;2.20;;;;;;;-0.91;86.21;91922.34;4958349;28;20196;-77
2022/03/03 04:30:17;;;;;;;1.40;1.40;;;;;;;-0.87;86.87;91914.03;4958948;28;20597;-76
2022/03/03 04:32:44;;;;;;;2.17;2.17;;;;;;;-0.95;87.49;91914.13;4958367;28;20208;-77
2022/03/03 04:35:12;;;;;;;1.70;1.70;;;;;;;-0.91;86.74;91919.88;4958989;28;20640;-76
2022/03/03 04:37:40;;;;;;;2.67;2.57;;;;;;;-0.85;86.40;91922.28;4959031;28;20624;-76
2022/03/03 04:40:09;;;;;;;2.73;2.73;;;;;;;-0.82;86.01;91918.94;4958015;28;20593;-76
2022/03/03 04:42:36;;;;;;;2.37;2.27;;;;;;;-1.01;86.40;91914.19;4958209;28;20196;-77
2022/03/03 04:45:04;;;;;;;2.37;2.37;;;;;;;-1.12;87.69;91891.19;4957602;28;20209;-77
2022/03/03 04:47:31;;;;;;;3.77;3.53;;;;;;;-1.27;88.07;91894.66;4957747;28;20605;-77
2022/03/03 04:49:58;;;;;;;4.73;4.43;;;;;;;-1.16;88.35;91909.41;4957926;28;20658;-77
2022/03/03 04:52:26;;;;;;;4.40;4.00;;;;;;;-1.24;87.21;91916.13;4919000;28;20558;-76
2022/03/03 04:54:54;;;;;;;2.57;2.47;;;;;;;-1.09;86.50;91913.47;4919308;28;20594;-77
2022/03/03 04:57:22;;;;;;;4.00;3.37;;;;;;;-1.25;88.17;91914.47;4928637;28;20605;-77
2022/03/03 04:59:49;;;;;;;2.33;2.33;;;;;;;-1.39;87.70;91906.34;4938200;28;20197;-77
2022/03/03 05:02:16;;;;;;;1.77;1.77;;;;;;;-1.34;86.22;91914.53;4939232;28;20585;-76
2022/03/03 05:04:43;;;;;;;2.93;2.83;;;;;;;-1.48;87.93;91911.41;4938720;28;20505;-77
2022/03/03 05:07:10;;;;;;;6.13;5.80;;;;;;;-1.71;89.35;91919.03;4938544;28;20515;-77
2022/03/03 05:09:38;;;;;;;11.23;7.20;;;;;;;-1.69;88.90;91910.75;4938428;28;20534;-77
2022/03/03 05:12:07;;;;;;;2.77;2.67;;;;;;;-1.81;89.64;91908.41;4938930;28;20608;-77
2022/03/03 05:14:35;;;;;;;1.97;1.90;;;;;;;-1.79;90.43;91915.78;4938256;28;20590;-77
2022/03/03 05:17:02;;;;;;;6.63;4.53;;;;;;;-1.82;90.80;91900.97;4938016;28;20516;-76
2022/03/03 05:19:29;;;;;;;5.27;3.33;;;;;;;-1.64;90.55;91904.94;4937585;28;20600;-76
2022/03/03 05:21:56;;;;;;;2.33;2.33;;;;;;;-1.75;91.10;91902.56;4938161;28;20609;-77
2022/03/03 05:24:24;;;;;;;3.23;3.17;;;;;;;-1.80;91.26;91907.53;4937719;28;20310;-78
2022/03/03 05:26:52;;;;;;;3.20;3.10;;;;;;;-1.58;90.40;91913.16;4938381;28;20648;-80
2022/03/03 05:29:20;;;;;;;3.20;3.00;;;;;;;-1.68;89.40;91891.75;4931936;28;20621;-78
2022/03/03 05:31:48;;;;;;;3.43;3.33;;;;;;;-1.50;89.16;91925.44;4928030;28;20570;-81
2022/03/03 05:34:15;;;;;;;3.33;3.23;;;;;;;-1.38;87.97;91928.63;4935322;28;20530;-77
2022/03/03 05:36:43;;;;;;;4.47;4.37;;;;;;;-1.27;87.53;91921.09;4934332;28;20480;-82
2022/03/03 05:39:11;;;;;;;3.30;3.20;;;;;;;-1.22;86.97;91921.03;4932941;28;20489;-80
2022/03/03 05:41:38;;;;;;;5.90;4.27;;;;;;;-1.40;86.92;91904.69;4927556;28;20582;-80
2022/03/03 05:44:15;;;;;;;13.93;7.10;;;;;;;-1.55;88.22;91892.47;4936829;28;20633;-80
2022/03/03 05:47:03;;;;;;;5.13;4.77;;;;;;;-1.49;89.23;91887.47;4935143;28;20556;-81
2022/03/03 05:49:31;;;;;;;7.57;7.13;;;;;;;-1.65;89.34;91853.78;4936399;28;20688;-81
2022/03/03 05:51:59;;;;;;;5.37;5.13;;;;;;;-1.35;90.11;91905.47;4934677;28;20585;-80
2022/03/03 05:54:28;;;;;;;5.83;5.47;;;;;;;-1.23;89.98;91907.00;4932950;28;20613;-80
2022/03/03 05:56:55;;;;;;;6.40;5.90;;;;;;;-1.06;90.06;91900.19;4934067;28;20604;-79
2022/03/03 05:59:28;;;;;;;7.77;7.17;;;;;;;-0.87;89.30;91907.41;4933512;28;20585;-80
2022/03/03 06:01:59;;;;;;;8.10;7.40;;;;;;;-0.86;86.37;91925.59;4933627;28;20226;-80
2022/03/03 06:04:28;;;;;;;7.13;6.93;;;;;;;-0.97;86.75;91915.81;4933949;28;20648;-82
2022/03/03 06:07:08;;;;;;;4.47;4.27;;;;;;;-1.19;86.32;91906.97;4933161;28;20271;-78
2022/03/03 06:09:37;;;;;;;6.47;3.77;;;;;;;-1.03;85.41;91915.06;4929752;28;20507;-80
2022/03/03 06:12:07;;;;;;;4.87;4.67;;;;;;;-0.88;85.49;91927.25;4932603;28;20601;-81
2022/03/03 06:14:42;;;;;;;6.80;5.40;;;;;;;-1.21;84.75;91898.72;4936469;28;20598;-78
2022/03/03 06:17:11;;;;;;;1.70;1.70;;;;;;;-1.11;84.24;91919.25;4936788;28;20629;-82
2022/03/03 06:19:41;;;;;;;2.03;2.00;;;;;;;-1.27;84.55;91921.91;4932682;28;20209;-80
2022/03/03 06:22:09;;;;;;;2.90;2.67;;;;;;;-1.51;84.07;91903.97;4935198;28;20601;-78
2022/03/03 06:24:37;;;;;;;1.97;1.97;;;;;;;-1.44;84.46;91918.78;4935034;28;20605;-78
2022/03/03 06:27:05;;;;;;;2.17;2.17;;;;;;;-1.38;84.02;91918.72;4933482;28;20558;-79
2022/03/03 06:29:33;;;;;;;4.53;4.33;;;;;;;-1.35;82.65;91942.63;4934881;28;20569;-77
2022/03/03 06:32:01;;;;;;;3.77;3.67;;;;;;;-1.85;83.21;91881.19;4934196;28;20630;-77
2022/03/03 06:34:30;;;;;;;2.03;1.93;;;;;;;-1.44;82.82;91945.19;4933967;28;20204;-78
2022/03/03 06:36:57;;;;;;;2.43;2.33;;;;;;;-1.42;82.91;91936.94;4939196;28;20493;-78
2022/03/03 06:39:25;;;;;;;2.93;2.83;;;;;;;-1.36;82.84;91929.44;4934379;28;20556;-78
2022/03/03 06:41:52;;;;;;;3.93;3.83;;;;;;;-1.18;82.22;91948.22;4933333;28;20583;-79
2022/03/03 06:44:19;;;;;;;6.53;6.03;;;;;;;-1.16;80.84;91956.47;4935041;28;21054;-78
2022/03/03 06:46:47;;;;;;;4.27;3.93;;;;;;;-1.14;79.93;91949.03;4935198;28;20498;-79
2022/03/03 06:49:14;;;;;;;6.60;6.20;;;;;;;-1.02;79.46;91957.19;4934249;28;20204;-78
2022/03/03 06:51:47;;;;;;;3.80;3.67;;;;;;;-1.17;78.85;91963.91;4932958;28;20636;-80
2022/03/03 06:54:17;;;;;;;3.03;2.93;;;;;;;-1.09;79.00;91943.19;4934829;28;20584;-79
2022/03/03 06:56:48;;;;;;;2.67;2.57;;;;;;;-0.94;79.36;91945.50;4933703;28;20231;-79
2022/03/03 06:59:17;;;;;;;1.83;1.83;;;;;;;-0.77;79.26;91952.75;4930193;28;20227;-80
2022/03/03 07:01:46;;;;;;;5.63;5.33;;;;;;;-0.66;78.88;91955.94;4935032;28;20559;-80
2022/03/03 07:04:14;;;;;;;5.70;5.40;;;;;;;-0.57;78.86;91947.56;4933078;28;20550;-79
2022/03/03 07:06:43;;;;;;;24.03;15.60;;;;;;;-0.60;77.89;91952.56;4934722;28;20699;-79
2022/03/03 07:09:12;;;;;;;9.33;8.47;;;;;;;-0.51;77.47;91955.72;4934451;28;20511;-78
2022/03/03 07:11:41;;;;;;;12.67;11.70;;;;;;;-0.29;78.66;91962.94;4940059;28;20507;-82
2022/03/03 07:14:08;;;;;;;5.07;4.73;;;;;;;-0.25;77.42;91964.53;4934492;28;20629;-79
2022/03/03 07:16:42;;;;;;;20.67;11.87;;;;;;;-0.22;76.49;91974.38;4933438;28;20241;-78
2022/03/03 07:19:40;;;;;;;9.30;8.67;;;;;;;-0.10;76.06;91984.97;4930930;28;20628;-78
2022/03/03 07:22:18;;;;;;;4.87;4.63;;;;;;;-0.04;76.74;91974.97;4920621;28;20559;-77
2022/03/03 07:24:47;;;;;;;5.57;5.33;;;;;;;-0.01;76.39;91971.63;4927143;28;20609;-80
2022/03/03 07:27:20;;;;;;;5.40;5.20;;;;;;;-0.07;76.58;91945.25;4926115;28;20450;-78
2022/03/03 07:29:56;;;;;;;4.97;4.63;;;;;;;0.30;76.34;91980.28;4933967;28;20209;-77
2022/03/03 07:32:33;;;;;;;27.63;21.53;;;;;;;0.43;74.81;91993.34;4936388;28;20210;-77
2022/03/03 07:35:05;;;;;;;8.83;7.97;;;;;;;0.54;74.37;92001.44;4933311;28;20222;-78
2022/03/03 07:37:37;;;;;;;13.57;12.20;;;;;;;0.64;73.72;91988.03;4928198;28;20478;-78
2022/03/03 07:40:10;;;;;;;14.33;10.47;;;;;;;0.62;73.75;91978.97;4921798;28;20552;-78
2022/03/03 07:42:39;;;;;;;29.13;20.03;;;;;;;0.67;73.58;91988.00;4923878;28;20202;-79
2022/03/03 07:45:08;;;;;;;25.33;16.90;;;;;;;0.57;74.05;91976.53;4922050;28;20553;-77
2022/03/03 07:47:36;;;;;;;10.67;9.83;;;;;;;0.61;73.47;91994.72;4927881;28;20502;-77
2022/03/03 07:50:05;;;;;;;5.43;4.90;;;;;;;0.54;73.74;91978.25;4924445;28;20638;-79
2022/03/03 07:52:34;;;;;;;4.97;4.70;;;;;;;0.39;74.34;91955.28;4923003;28;20512;-78
2022/03/03 07:55:02;;;;;;;8.13;7.63;;;;;;;0.61;75.39;91968.22;4936457;28;20609;-78
2022/03/03 07:57:40;;;;;;;8.67;8.13;;;;;;;0.73;74.82;91958.03;4934815;28;20236;-77
2022/03/03 08:00:09;;;;;;;8.73;7.93;;;;;;;1.04;74.61;91979.91;4938049;28;20593;-78
2022/03/03 08:02:37;;;;;;;8.17;7.57;;;;;;;0.79;73.69;91939.72;4936575;28;20528;-78
2022/03/03 08:05:06;;;;;;;16.53;14.70;;;;;;;0.86;74.93;91926.34;4935616;28;20194;-78
2022/03/03 08:07:43;;;;;;;27.73;17.90;;;;;;;1.24;74.18;91968.75;4935548;28;20211;-79
2022/03/03 08:10:11;;;;;;;15.27;12.07;;;;;;;1.55;75.08;91954.06;4935538;28;20203;-80
2022/03/03 08:12:40;;;;;;;12.37;11.07;;;;;;;1.76;73.12;91980.19;4921492;28;20625;-79
2022/03/03 08:15:09;;;;;;;24.93;16.77;;;;;;;1.96;73.35;91958.19;4922650;28;20627;-79
2022/03/03 08:17:36;;;;;;;20.20;15.10;;;;;;;2.33;71.84;92000.53;4930065;28;20577;-78
2022/03/03 08:20:07;;;;;;;25.13;21.00;;;;;;;2.30;71.26;91970.72;4935618;28;20586;-78
2022/03/03 08:22:38;;;;;;;17.97;16.07;;;;;;;2.75;69.72;92017.88;4926960;28;20503;-78
2022/03/03 08:25:08;;;;;;;31.70;22.10;;;;;;;2.90;68.43;92015.03;4922522;28;20228;-78
2022/03/03 08:27:38;;;;;;;30.57;19.77;;;;;;;2.96;67.46;91999.91;4934025;28;20661;-77
2022/03/03 08:30:07;;;;;;;22.70;13.00;;;;;;;2.93;66.65;92000.78;4933030;28;20200;-78
2022/03/03 08:32:38;;;;;;;13.33;9.53;;;;;;;2.76;65.14;91942.22;4921402;28;20606;-78
2022/03/03 08:35:12;;;;;;;10.30;9.07;;;;;;;3.43;63.55;92030.38;4925194;28;20606;-78
2022/03/03 08:37:42;;;;;;;24.83;12.47;;;;;;;3.61;62.87;92048.16;4934350;28;20473;-77
2022/03/03 08:40:13;;;;;;;17.33;9.03;;;;;;;3.66;61.99;92043.06;4933501;28;20586;-79
2022/03/03 08:42:44;;;;;;;13.53;9.73;;;;;;;3.85;61.07;92044.22;4932732;28;20562;-78
2022/03/03 08:45:12;;;;;;;36.70;16.73;;;;;;;3.97;62.05;92021.41;4934598;28;20574;-77
2022/03/03 08:47:42;;;;;;;24.63;15.27;;;;;;;4.18;63.27;92020.78;4934641;28;20580;-77
2022/03/03 08:50:14;;;;;;;25.73;17.37;;;;;;;4.42;60.84;92040.94;4932137;28;20557;-79
2022/03/03 08:52:44;;;;;;;17.93;13.83;;;;;;;4.62;60.74;92032.88;4935747;28;20454;-76
2022/03/03 08:55:14;;;;;;;10.23;9.17;;;;;;;4.56;57.54;92053.88;4935819;28;20200;-76
2022/03/03 08:57:41;;;;;;;5.40;4.90;;;;;;;4.39;57.40;92031.06;4932628;28;20662;-77
2022/03/03 09:00:12;;;;;;;3.07;2.90;;;;;;;4.62;56.99;92051.16;4935739;28;20562;-77
2022/03/03 09:02:40;;;;;;;13.20;7.77;;;;;;;4.71;56.41;92050.09;4935457;28;20201;-76
2022/03/03 09:05:08;;;;;;;13.87;7.83;;;;;;;4.78;57.56;92026.53;4932958;28;20566;-77
2022/03/03 09:07:35;;;;;;;25.23;14.97;;;;;;;4.83;57.61;92033.03;4932112;28;20612;-77
2022/03/03 09:10:05;;;;;;;21.80;13.10;;;;;;;4.89;57.29;92032.03;4935048;28;20552;-77
2022/03/03 09:12:33;;;;;;;15.00;10.80;;;;;;;4.84;56.13;92041.38;4932038;28;20283;-76
2022/03/03 09:15:00;;;;;;;10.10;9.10;;;;;;;4.86;55.36;92047.13;4932241;28;20529;-76
2022/03/03 09:17:28;;;;;;;13.93;10.77;;;;;;;4.94;56.88;92042.72;4930256;28;20637;-77
2022/03/03 09:19:55;;;;;;;17.67;12.83;;;;;;;4.89;56.44;92037.84;4931218;28;20492;-77
2022/03/03 09:22:22;;;;;;;7.80;7.00;;;;;;;4.87;56.87;92039.56;4934526;28;20212;-76
2022/03/03 09:24:49;;;;;;;42.97;21.77;;;;;;;4.79;55.73;92055.72;4920460;28;20499;-76
2022/03/03 09:27:18;;;;;;;57.37;23.03;;;;;;;4.79;56.63;92041.47;4929077;28;20477;-76
2022/03/03 09:29:45;;;;;;;16.47;8.93;;;;;;;4.84;59.44;92009.66;4928404;28;20240;-74
2022/03/03 09:32:13;;;;;;;20.50;8.70;;;;;;;4.92;58.58;92014.41;4934812;28;20455;-75
2022/03/03 09:34:41;;;;;;;11.37;9.47;;;;;;;4.87;56.20;92048.75;4933542;28;20636;-76
2022/03/03 09:37:08;;;;;;;4.37;4.00;;;;;;;4.93;55.45;92061.91;4918386;28;20584;-75
2022/03/03 09:39:35;;;;;;;4.70;4.50;;;;;;;4.99;55.42;92053.41;4936634;28;20505;-75
2022/03/03 09:42:02;;;;;;;2.77;2.67;;;;;;;4.88;55.37;92038.72;4928428;28;20583;-76
2022/03/03 09:44:31;;;;;;;2.23;2.10;;;;;;;4.98;55.33;92052.59;4920640;28;20625;-77
2022/03/03 09:47:00;;;;;;;3.20;3.03;;;;;;;4.97;57.19;92022.59;4923076;28;20664;-75
2022/03/03 09:49:27;;;;;;;6.10;5.37;;;;;;;5.18;55.94;92049.47;4924534;28;20579;-78
2022/03/03 09:51:58;;;;;;;6.60;4.60;;;;;;;5.31;55.63;92054.88;4939500;28;20687;-75
2022/03/03 09:54:26;;;;;;;6.87;5.57;;;;;;;5.39;54.78;92051.28;4935129;28;20578;-76
2022/03/03 09:56:54;;;;;;;22.03;13.10;;;;;;;5.31;54.67;92044.88;4929740;28;20603;-77
2022/03/03 09:59:21;;;;;;;10.10;8.73;;;;;;;5.46;54.96;92046.88;4918245;28;20586;-75
2022/03/03 10:01:50;;;;;;;7.27;6.50;;;;;;;5.51;57.32;92017.50;4920431;28;20656;-75
2022/03/03 10:04:23;;;;;;;4.10;3.70;;;;;;;5.54;55.72;92047.44;4935322;28;20601;-76
2022/03/03 10:06:52;;;;;;;5.93;2.87;;;;;;;5.27;53.17;92059.19;4934674;28;20590;-75
2022/03/03 10:09:19;;;;;;;4.33;2.30;;;;;;;5.39;53.32;92068.00;4934602;28;20613;-74
2022/03/03 10:12:04;;;;;;;3.33;3.13;;;;;;;5.57;53.60;92049.88;4932044;28;20598;-76
2022/03/03 10:14:35;;;;;;;56.13;23.23;;;;;;;5.51;52.85;92032.53;4953275;28;20266;-76
2022/03/03 10:17:07;;;;;;;34.53;14.50;;;;;;;5.76;52.07;92068.41;4934458;28;20642;-75
2022/03/03 10:19:34;;;;;;;4.50;4.07;;;;;;;5.63;51.55;92052.16;4922973;28;20458;-76
2022/03/03 10:22:01;;;;;;;10.37;8.70;;;;;;;5.74;52.31;92051.81;4935256;28;20550;-76
2022/03/03 10:24:30;;;;;;;6.13;3.50;;;;;;;5.91;52.99;92044.56;4935353;28;20660;-74
2022/03/03 10:26:59;;;;;;;6.83;4.50;;;;;;;5.88;53.17;92032.13;4933915;28;20227;-74
2022/03/03 10:29:27;;;;;;;3.13;3.00;;;;;;;5.69;53.18;92046.91;4936639;28;20484;-74
2022/03/03 10:31:56;;;;;;;7.87;4.47;;;;;;;5.39;53.28;92031.25;4925350;28;20276;-75
2022/03/03 10:34:28;;;;;;;5.83;4.40;;;;;;;5.52;52.92;92044.16;4927514;28;20474;-75
2022/03/03 10:37:00;;;;;;;17.07;11.00;;;;;;;5.47;53.95;92023.47;4930404;28;20527;-74
2022/03/03 10:39:38;;;;;;;2.23;2.00;;;;;;;5.45;52.39;92025.22;4930090;28;20197;-75
2022/03/03 10:42:13;;;;;;;10.17;8.03;;;;;;;5.59;54.07;92015.53;4933298;28;20675;-75
2022/03/03 10:44:44;;;;;;;5.10;4.70;;;;;;;5.73;52.43;92028.44;4923611;28;20645;-75
2022/03/03 10:47:12;;;;;;;10.80;5.93;;;;;;;5.63;52.41;92032.13;4928711;28;20267;-74
2022/03/03 10:49:43;;;;;;;3.97;2.70;;;;;;;5.72;51.82;92036.81;4933554;28;20594;-75
2022/03/03 10:52:16;;;;;;;4.13;3.73;;;;;;;5.68;50.64;92047.81;4951314;28;20226;-76
2022/03/03 10:54:51;;;;;;;4.87;4.40;;;;;;;5.71;51.59;92014.31;4950348;28;20369;-76
2022/03/03 10:57:32;;;;;;;2.93;2.73;;;;;;;5.93;49.82;92049.50;4955154;28;20719;-76
2022/03/03 11:00:02;;;;;;;8.63;3.47;;;;;;;5.66;50.92;92038.69;4956625;28;20569;-75
2022/03/03 11:02:30;;;;;;;11.53;3.83;;;;;;;5.73;51.23;92035.94;4956902;28;20581;-75
2022/03/03 11:04:59;;;;;;;2.27;2.13;;;;;;;5.73;49.49;92052.66;4957309;28;20561;-76
2022/03/03 11:07:27;;;;;;;3.40;3.20;;;;;;;5.80;50.61;92034.84;4954589;28;20608;-75
2022/03/03 11:09:55;;;;;;;4.53;4.00;;;;;;;5.92;51.83;92020.28;4939639;28;20538;-76
2022/03/03 11:12:25;;;;;;;10.90;6.60;;;;;;;5.97;50.54;92025.97;4944910;28;20582;-75
2022/03/03 11:14:54;;;;;;;3.67;3.37;;;;;;;6.06;48.96;92039.00;4957996;28;20557;-75
2022/03/03 11:17:24;;;;;;;1.20;1.20;;;;;;;6.14;50.60;92013.66;4958816;28;20570;-75
2022/03/03 11:19:52;;;;;;;28.13;9.90;;;;;;;6.17;50.14;92019.38;4958827;28;20635;-75
2022/03/03 11:22:22;;;;;;;3.53;3.23;;;;;;;6.26;47.61;92043.31;4958632;28;20562;-77
2022/03/03 11:24:50;;;;;;;2.70;2.50;;;;;;;6.32;48.38;92032.22;4931538;28;20656;-76
2022/03/03 11:27:18;;;;;;;1.20;1.20;;;;;;;6.26;47.81;92023.22;4938313;28;20341;-76
2022/03/03 11:30:13;;;;;;;30.13;11.17;;;;;;;6.38;48.86;92016.97;4935111;28;20528;-77
2022/03/03 11:32:40;;;;;;;5.43;3.10;;;;;;;6.38;47.08;92037.84;4937107;28;20507;-76
2022/03/03 11:35:09;;;;;;;6.60;6.00;;;;;;;6.29;48.87;92009.78;4936637;28;20558;-76
2022/03/03 11:37:41;;;;;;;9.70;3.13;;;;;;;6.29;48.39;92018.13;4935042;28;20767;-75
2022/03/03 11:40:12;;;;;;;7.50;6.83;;;;;;;6.43;50.22;92002.56;4933946;28;20559;-76
2022/03/03 11:42:40;;;;;;;7.87;4.63;;;;;;;6.25;50.00;91994.81;4935681;28;20555;-76